createdAt,value
2018-06-25T00:01:28.937Z,73.90
2018-06-25T00:03:57.583Z,73.90
2018-06-25T00:06:26.155Z,73.80
2018-06-25T00:08:54.673Z,73.90
2018-06-25T00:11:23.199Z,73.80
2018-06-25T00:13:51.728Z,73.90
2018-06-25T00:16:20.234Z,73.90
2018-06-25T00:18:48.767Z,74.00
2018-06-25T00:21:17.310Z,73.90
2018-06-25T00:23:45.802Z,74.00
2018-06-25T00:31:10.670Z,74.10
2018-06-25T00:33:39.349Z,73.90
2018-06-25T00:36:07.948Z,73.90
2018-06-25T00:38:36.577Z,74.00
2018-06-25T00:41:05.101Z,74.00
2018-06-25T00:46:01.859Z,74.10
2018-06-25T00:50:58.692Z,74.20
2018-06-25T00:53:27.234Z,74.10
2018-06-25T00:55:55.714Z,74.20
2018-06-25T01:00:52.416Z,74.20
2018-06-25T01:03:20.929Z,74.10
2018-06-25T01:05:49.529Z,74.20
2018-06-25T01:10:46.268Z,74.20
2018-06-25T01:13:14.751Z,74.20
2018-06-25T01:15:43.294Z,74.20
2018-06-25T01:18:11.806Z,74.30
2018-06-25T01:20:40.479Z,74.30
2018-06-25T01:23:08.930Z,74.20
2018-06-25T01:25:37.443Z,74.20
2018-06-25T01:28:05.976Z,73.60
2018-06-25T01:30:34.504Z,74.20
2018-06-25T01:35:31.300Z,74.30
2018-06-25T01:37:59.802Z,74.30
2018-06-25T01:40:28.344Z,74.30
2018-06-25T01:45:25.126Z,75.00
2018-06-25T01:47:53.618Z,74.30
2018-06-25T01:50:22.218Z,74.30
2018-06-25T01:52:50.897Z,74.20
2018-06-25T01:55:19.374Z,74.30
2018-06-25T01:57:48.244Z,74.10
2018-06-25T02:00:16.775Z,74.20
2018-06-25T02:02:45.307Z,74.30
2018-06-25T02:05:13.832Z,74.20
2018-06-25T02:07:42.315Z,74.20
2018-06-25T02:10:10.822Z,74.30
2018-06-25T02:12:39.300Z,74.30
2018-06-25T02:15:08.113Z,74.40
2018-06-25T02:17:36.650Z,74.40
2018-06-25T02:20:05.238Z,74.40
2018-06-25T02:25:01.928Z,74.50
2018-06-25T02:27:30.399Z,74.40
2018-06-25T02:29:58.880Z,74.50
2018-06-25T02:34:55.590Z,74.50
2018-06-25T02:37:24.075Z,74.50
2018-06-25T02:39:52.552Z,74.50
2018-06-25T02:42:21.033Z,74.50
2018-06-25T02:44:49.511Z,74.50
2018-06-25T02:47:17.974Z,74.40
2018-06-25T02:49:46.493Z,74.40
2018-06-25T02:52:14.963Z,74.40
2018-06-25T02:54:43.456Z,74.40
2018-06-25T02:57:11.920Z,74.50
2018-06-25T03:02:08.555Z,74.50
2018-06-25T03:04:37.056Z,74.40
2018-06-25T03:07:05.576Z,74.50
2018-06-25T03:09:34.039Z,74.50
2018-06-25T03:14:30.649Z,74.60
2018-06-25T03:16:59.114Z,74.60
2018-06-25T03:19:27.575Z,74.60
2018-06-25T03:21:56.070Z,74.60
2018-06-25T03:24:24.557Z,74.50
2018-06-25T03:26:53.022Z,74.50
2018-06-25T03:29:21.504Z,74.70
2018-06-25T03:31:49.937Z,74.60
2018-06-25T03:34:18.438Z,74.60
2018-06-25T03:36:46.898Z,74.60
2018-06-25T03:39:15.381Z,74.60
2018-06-25T03:41:43.835Z,74.60
2018-06-25T03:46:40.493Z,74.60
2018-06-25T03:49:09.067Z,74.60
2018-06-25T03:51:37.585Z,74.60
2018-06-25T03:54:06.047Z,74.70
2018-06-25T03:56:34.547Z,74.70
2018-06-25T03:59:03.132Z,74.70
2018-06-25T04:03:59.801Z,74.70
2018-06-25T04:08:56.519Z,74.70
2018-06-25T04:11:25.026Z,74.70
2018-06-25T04:13:53.489Z,74.70
2018-06-25T04:16:21.979Z,74.80
2018-06-25T04:18:57.730Z,74.80
2018-06-25T04:21:26.218Z,74.80
2018-06-25T04:23:54.687Z,74.80
2018-06-25T04:26:23.184Z,74.70
2018-06-25T04:28:51.637Z,74.70
2018-06-25T04:31:20.109Z,74.70
2018-06-25T04:33:48.582Z,74.80
2018-06-25T04:36:18.213Z,74.80
2018-06-25T04:38:46.707Z,74.80
2018-06-25T04:41:15.512Z,74.70
2018-06-25T04:43:44.053Z,74.90
2018-06-25T04:48:41.716Z,75.10
2018-06-25T04:51:10.275Z,74.90
2018-06-25T04:53:39.804Z,74.80
2018-06-25T04:56:08.266Z,74.80
2018-06-25T04:58:36.847Z,74.80
2018-06-25T05:01:05.378Z,74.80
2018-06-25T05:03:33.836Z,74.90
2018-06-25T05:06:02.366Z,74.90
2018-06-25T05:08:30.888Z,74.90
2018-06-25T05:10:59.323Z,74.90
2018-06-25T05:13:27.800Z,74.90
2018-06-25T05:15:56.247Z,74.90
2018-06-25T05:18:24.789Z,74.90
2018-06-25T05:20:53.280Z,74.90
2018-06-25T05:23:21.813Z,75.00
2018-06-25T05:25:50.297Z,75.00
2018-06-25T05:28:18.770Z,75.00
2018-06-25T05:30:47.253Z,75.00
2018-06-25T05:33:16.008Z,75.00
2018-06-25T05:35:44.467Z,75.00
2018-06-25T05:38:12.981Z,75.00
2018-06-25T05:43:09.701Z,75.80
2018-06-25T05:45:38.203Z,75.20
2018-06-25T05:48:06.765Z,75.20
2018-06-25T05:50:35.328Z,75.20
2018-06-25T05:53:03.816Z,75.20
2018-06-25T05:55:32.277Z,75.20
2018-06-25T05:58:00.810Z,75.30
2018-06-25T06:00:29.308Z,75.30
2018-06-25T06:02:57.793Z,76.10
2018-06-25T06:05:26.283Z,75.40
2018-06-25T06:07:54.841Z,75.40
2018-06-25T06:10:23.352Z,75.30
2018-06-25T06:12:51.846Z,75.40
2018-06-25T06:15:20.321Z,75.30
2018-06-25T06:17:48.802Z,75.30
2018-06-25T06:20:17.267Z,75.30
2018-06-25T06:22:45.748Z,75.20
2018-06-25T06:25:14.232Z,75.30
2018-06-25T06:30:10.967Z,75.40
2018-06-25T06:32:39.436Z,75.40
2018-06-25T06:35:07.948Z,75.40
2018-06-25T06:37:36.585Z,75.40
2018-06-25T06:40:05.142Z,75.30
2018-06-25T06:42:33.668Z,75.30
2018-06-25T06:45:02.152Z,75.40
2018-06-25T06:47:30.612Z,75.30
2018-06-25T06:52:27.366Z,75.40
2018-06-25T06:57:24.022Z,75.20
2018-06-25T06:59:52.467Z,75.00
2018-06-25T07:02:20.982Z,75.10
2018-06-25T07:04:49.459Z,75.10
2018-06-25T07:07:18.015Z,75.00
2018-06-25T07:09:46.494Z,75.00
2018-06-25T07:12:14.972Z,75.00
2018-06-25T07:14:43.438Z,74.90
2018-06-25T07:17:11.921Z,75.00
2018-06-25T07:19:40.407Z,74.90
2018-06-25T07:22:09.361Z,75.00
2018-06-25T07:24:37.818Z,75.10
2018-06-25T07:27:06.323Z,75.10
2018-06-25T07:29:34.839Z,75.00
2018-06-25T07:32:03.320Z,75.00
2018-06-25T07:34:31.905Z,75.10
2018-06-25T07:37:00.413Z,75.00
2018-06-25T07:39:28.899Z,74.90
2018-06-25T07:44:25.558Z,74.80
2018-06-25T07:46:53.985Z,74.70
2018-06-25T07:49:22.475Z,74.70
2018-06-25T07:51:50.945Z,74.80
2018-06-25T07:54:19.452Z,74.80
2018-06-25T07:56:47.932Z,74.70
2018-06-25T07:59:16.439Z,74.80
2018-06-25T08:01:44.903Z,74.80
2018-06-25T08:04:13.406Z,74.80
2018-06-25T08:06:42.793Z,74.70
2018-06-25T08:09:12.805Z,74.70
2018-06-25T08:11:42.795Z,74.70
2018-06-25T08:14:13.251Z,74.70
2018-06-25T08:16:41.774Z,74.70
2018-06-25T08:19:10.239Z,74.90
2018-06-25T08:21:38.732Z,74.90
2018-06-25T08:24:07.493Z,74.90
2018-06-25T08:26:36.479Z,74.90
2018-06-25T08:29:05.203Z,74.80
2018-06-25T08:31:33.695Z,74.80
2018-06-25T08:34:02.411Z,74.80
2018-06-25T08:36:30.910Z,74.70
2018-06-25T08:38:59.472Z,74.80
2018-06-25T08:41:28.079Z,74.80
2018-06-25T08:43:56.606Z,74.90
2018-06-25T08:46:25.133Z,74.90
2018-06-25T08:48:53.621Z,74.80
2018-06-25T08:51:22.126Z,74.70
2018-06-25T08:53:50.663Z,74.70
2018-06-25T08:56:19.226Z,74.70
2018-06-25T08:58:47.738Z,74.70
2018-06-25T09:01:16.253Z,74.70
2018-06-25T09:03:44.751Z,74.70
2018-06-25T09:06:13.297Z,74.70
2018-06-25T09:08:41.736Z,74.80
2018-06-25T09:11:10.258Z,74.70
2018-06-25T09:13:38.680Z,74.60
2018-06-25T09:16:07.311Z,74.60
2018-06-25T09:21:04.010Z,74.50
2018-06-25T09:23:32.469Z,74.30
2018-06-25T09:26:07.465Z,74.30
2018-06-25T09:28:36.209Z,74.30
2018-06-25T09:31:04.894Z,74.30
2018-06-25T09:33:33.491Z,74.40
2018-06-25T09:36:01.996Z,74.30
2018-06-25T09:38:31.216Z,74.20
2018-06-25T09:40:59.737Z,74.30
2018-06-25T09:43:28.258Z,74.10
2018-06-25T09:45:57.129Z,74.20
2018-06-25T09:50:54.026Z,74.50
2018-06-25T09:53:23.134Z,74.50
2018-06-25T09:55:51.647Z,74.50
2018-06-25T09:58:20.150Z,74.40
2018-06-25T10:00:53.978Z,74.20
2018-06-25T10:03:22.552Z,74.90
2018-06-25T10:05:51.106Z,74.10
2018-06-25T10:08:19.678Z,74.00
2018-06-25T10:10:48.158Z,73.90
2018-06-25T10:13:16.770Z,73.90
2018-06-25T10:15:45.228Z,73.80
2018-06-25T10:18:13.682Z,73.70
2018-06-25T10:23:10.376Z,73.70
2018-06-25T10:25:38.927Z,73.70
2018-06-25T10:30:35.599Z,73.70
2018-06-25T10:35:32.263Z,73.60
2018-06-25T10:40:28.948Z,73.50
2018-06-25T10:42:57.495Z,73.60
2018-06-25T10:45:26.001Z,73.40
2018-06-25T10:47:54.493Z,73.40
2018-06-25T10:50:23.081Z,73.30
2018-06-25T10:52:51.616Z,73.30
2018-06-25T10:55:20.136Z,73.30
2018-06-25T10:57:48.579Z,73.50
2018-06-25T11:00:17.171Z,73.40
2018-06-25T11:02:45.601Z,73.30
2018-06-25T11:07:42.486Z,73.00
2018-06-25T11:10:11.069Z,73.10
2018-06-25T11:12:39.639Z,72.90
2018-06-25T11:15:08.116Z,72.90
2018-06-25T11:17:36.673Z,72.90
2018-06-25T11:20:05.281Z,72.70
2018-06-25T11:22:34.444Z,72.70
2018-06-25T11:25:02.950Z,72.60
2018-06-25T11:27:31.533Z,72.60
2018-06-25T11:30:00.188Z,72.60
2018-06-25T11:32:28.693Z,72.70
2018-06-25T11:34:57.187Z,72.50
2018-06-25T11:37:25.817Z,72.50
2018-06-25T11:39:54.339Z,72.40
2018-06-25T11:42:22.878Z,72.30
2018-06-25T11:44:51.350Z,72.20
2018-06-25T11:47:20.101Z,72.10
2018-06-25T11:49:48.583Z,72.20
2018-06-25T11:52:17.270Z,72.30
2018-06-25T11:54:45.888Z,72.20
2018-06-25T11:57:14.474Z,72.20
2018-06-25T11:59:42.982Z,72.20
2018-06-25T12:02:11.496Z,72.00
2018-06-25T12:07:08.377Z,71.90
2018-06-25T12:12:05.133Z,71.90
2018-06-25T12:14:33.596Z,71.80
2018-06-25T12:17:02.109Z,72.00
2018-06-25T12:19:30.796Z,71.90
2018-06-25T12:21:59.291Z,71.90
2018-06-25T12:24:27.757Z,71.90
2018-06-25T12:26:56.246Z,71.90
2018-06-25T12:29:24.794Z,71.80
2018-06-25T12:31:53.353Z,71.80
2018-06-25T12:34:21.862Z,71.60
2018-06-25T12:36:51.873Z,71.40
2018-06-25T12:39:20.922Z,71.30
2018-06-25T12:41:50.148Z,71.40
2018-06-25T12:44:18.653Z,71.30
2018-06-25T12:46:47.180Z,71.20
2018-06-25T12:49:16.046Z,71.10
2018-06-25T12:51:46.704Z,71.10
2018-06-25T12:54:16.058Z,71.00
2018-06-25T12:56:45.345Z,70.80
2018-06-25T12:59:15.231Z,71.00
2018-06-25T13:01:44.251Z,71.30
2018-06-25T13:04:13.596Z,71.30
2018-06-25T13:06:42.137Z,71.30
2018-06-25T13:09:12.572Z,71.40
2018-06-25T13:11:41.135Z,71.20
2018-06-25T13:14:09.734Z,70.80
2018-06-25T13:16:38.291Z,70.60
2018-06-25T13:19:07.058Z,70.70
2018-06-25T13:21:35.550Z,70.40
2018-06-25T13:24:04.050Z,70.30
2018-06-25T13:26:32.658Z,70.20
2018-06-25T13:29:01.154Z,70.00
2018-06-25T13:31:29.627Z,69.90
2018-06-25T13:33:58.104Z,69.80
2018-06-25T13:36:26.583Z,69.70
2018-06-25T13:38:55.074Z,69.40
2018-06-25T13:41:23.706Z,69.30
2018-06-25T13:43:52.198Z,69.40
2018-06-25T13:46:20.699Z,69.20
2018-06-25T13:53:45.647Z,69.40
2018-06-25T13:58:42.346Z,68.50
2018-06-25T14:01:11.291Z,68.50
2018-06-25T14:06:08.045Z,68.50
2018-06-25T14:08:49.165Z,68.60
2018-06-25T14:11:17.627Z,68.70
2018-06-25T14:16:14.368Z,68.70
2018-06-25T14:18:42.944Z,68.70
2018-06-25T14:21:11.448Z,68.70
2018-06-25T14:23:44.147Z,68.60
2018-06-25T14:26:12.620Z,68.50
2018-06-25T14:28:41.156Z,68.70
2018-06-25T14:31:14.877Z,68.70
2018-06-25T14:33:48.574Z,68.60
2018-06-25T14:36:17.058Z,68.60
2018-06-25T14:38:45.566Z,68.40
2018-06-25T14:41:14.034Z,68.40
2018-06-25T14:43:42.583Z,68.50
2018-06-25T14:48:39.174Z,68.60
2018-06-25T14:51:07.821Z,68.50
2018-06-25T14:53:36.437Z,68.50
2018-06-25T14:56:05.449Z,68.60
2018-06-25T15:01:02.170Z,68.60
2018-06-25T15:03:30.655Z,68.50
2018-06-25T15:05:59.126Z,68.60
2018-06-25T15:08:27.586Z,68.50
2018-06-25T15:10:56.167Z,68.40
2018-06-25T15:13:24.655Z,68.40
2018-06-25T15:15:53.182Z,68.40
2018-06-25T15:18:21.702Z,68.60
2018-06-25T15:20:50.244Z,68.50
2018-06-25T15:23:18.680Z,68.60
2018-06-25T15:25:47.202Z,68.60
2018-06-25T15:28:15.834Z,68.60
2018-06-25T15:33:12.484Z,68.60
2018-06-25T15:35:40.971Z,68.70
2018-06-25T15:38:09.463Z,68.60
2018-06-25T15:40:37.978Z,69.10
2018-06-25T15:43:06.508Z,69.00
2018-06-25T15:45:35.300Z,69.00
2018-06-25T15:48:04.775Z,69.00
2018-06-25T15:50:33.513Z,69.00
2018-06-25T15:53:02.178Z,69.00
2018-06-25T15:55:30.836Z,68.90
2018-06-25T15:57:59.365Z,68.70
2018-06-25T16:00:27.980Z,68.80
2018-06-25T16:02:56.615Z,68.80
2018-06-25T16:05:25.382Z,68.90
2018-06-25T16:07:54.481Z,68.90
2018-06-25T16:10:22.951Z,68.70
2018-06-25T16:15:20.679Z,68.80
2018-06-25T16:17:49.206Z,68.70
2018-06-25T16:20:17.707Z,68.70
2018-06-25T16:22:46.394Z,68.60
2018-06-25T16:25:15.156Z,69.70
2018-06-25T16:27:43.751Z,68.90
2018-06-25T16:30:12.210Z,69.10
2018-06-25T16:32:40.767Z,69.20
2018-06-25T16:35:09.255Z,69.30
2018-06-25T16:37:37.785Z,69.30
2018-06-25T16:40:06.269Z,69.40
2018-06-25T16:42:34.855Z,69.40
2018-06-25T16:45:03.409Z,69.50
2018-06-25T16:47:31.938Z,69.80
2018-06-25T16:50:00.555Z,69.80
2018-06-25T16:52:29.402Z,69.90
2018-06-25T16:54:57.994Z,70.00
2018-06-25T16:57:26.542Z,70.10
2018-06-25T17:02:23.377Z,70.40
2018-06-25T17:04:51.838Z,70.50
2018-06-25T17:07:20.440Z,70.60
2018-06-25T17:09:48.938Z,70.70
2018-06-25T17:12:17.435Z,70.90
2018-06-25T17:14:46.176Z,70.90
2018-06-25T17:17:14.989Z,70.90
2018-06-25T17:19:43.510Z,71.10
2018-06-25T17:22:13.021Z,71.10
2018-06-25T17:24:41.520Z,71.20
2018-06-25T17:27:09.990Z,71.30
2018-06-25T17:29:38.489Z,71.40
2018-06-25T17:34:35.148Z,71.60
2018-06-25T17:37:03.686Z,71.60
2018-06-25T17:39:32.175Z,71.70
2018-06-25T17:42:00.648Z,71.80
2018-06-25T17:44:29.106Z,71.80
2018-06-25T17:49:25.734Z,72.00
2018-06-25T17:51:54.234Z,72.20
2018-06-25T17:54:22.724Z,72.20
2018-06-25T17:59:19.711Z,71.60
2018-06-25T18:01:48.416Z,72.40
2018-06-25T18:04:16.913Z,72.40
2018-06-25T18:06:45.490Z,72.50
2018-06-25T18:09:14.034Z,72.50
2018-06-25T18:11:42.526Z,72.50
2018-06-25T18:14:11.043Z,72.50
2018-06-25T18:16:39.528Z,72.40
2018-06-25T18:19:07.987Z,72.40
2018-06-25T18:24:04.779Z,72.50
2018-06-25T18:29:01.450Z,72.50
2018-06-25T18:31:30.000Z,72.40
2018-06-25T18:33:58.513Z,72.40
2018-06-25T18:36:27.006Z,72.50
2018-06-25T18:38:55.522Z,72.60
2018-06-25T18:41:23.994Z,72.70
2018-06-25T18:43:52.513Z,72.60
2018-06-25T18:46:20.960Z,72.70
2018-06-25T18:48:49.467Z,72.80
2018-06-25T18:51:18.028Z,72.80
2018-06-25T18:53:46.481Z,72.80
2018-06-25T18:56:14.938Z,72.80
2018-06-25T18:58:43.420Z,73.70
2018-06-25T19:01:11.892Z,72.90
2018-06-25T19:03:40.390Z,72.90
2018-06-25T19:06:08.854Z,72.90
2018-06-25T19:08:37.321Z,73.00
2018-06-25T19:11:05.815Z,73.00
2018-06-25T19:13:34.315Z,72.90
2018-06-25T19:16:02.764Z,72.90
2018-06-25T19:18:31.268Z,73.00
2018-06-25T19:20:59.704Z,73.10
2018-06-25T19:23:28.292Z,73.10
2018-06-25T19:25:56.726Z,73.10
2018-06-25T19:28:25.146Z,73.10
2018-06-25T19:30:53.710Z,73.20
2018-06-25T19:33:22.213Z,73.20
2018-06-25T19:35:50.747Z,73.10
2018-06-25T19:43:15.658Z,73.20
2018-06-25T19:45:44.135Z,73.30
2018-06-25T19:48:12.614Z,73.30
2018-06-25T19:50:41.328Z,74.10
2018-06-25T19:53:09.845Z,73.40
2018-06-25T19:55:38.323Z,73.40
2018-06-25T20:00:34.958Z,73.50
2018-06-25T20:03:03.393Z,73.50
2018-06-25T20:05:32.571Z,73.50
2018-06-25T20:08:01.015Z,73.40
2018-06-25T20:10:29.496Z,73.40
2018-06-25T20:12:58.075Z,73.40
2018-06-25T20:15:26.570Z,73.40
2018-06-25T20:17:55.165Z,73.50
2018-06-25T20:20:23.607Z,73.50
2018-06-25T20:22:52.957Z,73.50
2018-06-25T20:25:21.556Z,73.60
2018-06-25T20:27:50.018Z,73.60
2018-06-25T20:30:18.478Z,73.60
2018-06-25T20:32:46.985Z,73.60
2018-06-25T20:35:15.794Z,73.70
2018-06-25T20:37:44.340Z,73.70
2018-06-25T20:40:12.802Z,73.80
2018-06-25T20:45:09.689Z,74.60
2018-06-25T20:47:38.200Z,73.80
2018-06-25T20:50:06.852Z,73.80
2018-06-25T20:52:35.578Z,73.90
2018-06-25T20:55:04.244Z,73.90
2018-06-25T20:57:32.791Z,74.00
2018-06-25T21:00:01.500Z,74.00
2018-06-25T21:02:29.984Z,74.10
2018-06-25T21:04:58.838Z,74.10
2018-06-25T21:07:27.343Z,74.10
2018-06-25T21:09:55.928Z,74.20
2018-06-25T21:12:24.604Z,74.20
2018-06-25T21:14:53.229Z,74.10
2018-06-25T21:17:21.702Z,74.30
2018-06-25T21:19:50.292Z,74.50
2018-06-25T21:22:18.748Z,74.40
2018-06-25T21:24:47.259Z,74.20
2018-06-25T21:27:15.682Z,74.20
2018-06-25T21:29:44.167Z,74.30
2018-06-25T21:34:40.876Z,74.40
2018-06-25T21:37:09.610Z,74.30
2018-06-25T21:39:38.107Z,74.40
2018-06-25T21:44:42.141Z,74.40
2018-06-25T21:49:39.089Z,74.40
2018-06-25T21:52:07.628Z,74.50
2018-06-25T21:54:36.134Z,74.70
2018-06-25T21:57:04.703Z,74.50
2018-06-25T21:59:33.227Z,74.50
2018-06-25T22:02:01.675Z,75.30
2018-06-25T22:04:30.514Z,74.60
2018-06-25T22:06:59.233Z,74.60
2018-06-25T22:09:27.858Z,74.70
2018-06-25T22:11:56.297Z,74.80
2018-06-25T22:14:24.933Z,74.80
2018-06-25T22:16:53.430Z,74.80
2018-06-25T22:19:21.888Z,74.80
2018-06-25T22:21:50.349Z,74.90
2018-06-25T22:24:18.895Z,74.90
2018-06-25T22:26:47.439Z,74.80
2018-06-25T22:29:15.944Z,74.90
2018-06-25T22:31:44.482Z,75.00
2018-06-25T22:34:12.980Z,75.10
2018-06-25T22:36:41.520Z,75.10
2018-06-25T22:39:12.403Z,75.10
2018-06-25T22:44:11.882Z,75.20
2018-06-25T22:46:41.412Z,75.10
2018-06-25T22:49:10.343Z,75.10
2018-06-25T22:51:39.025Z,75.00
2018-06-25T22:54:08.176Z,75.00
2018-06-25T22:56:36.872Z,75.00
2018-06-25T22:59:05.830Z,75.00
2018-06-25T23:01:34.347Z,75.00
2018-06-25T23:04:02.813Z,75.00
2018-06-25T23:09:00.375Z,75.00
2018-06-25T23:13:57.099Z,75.00
2018-06-25T23:16:25.569Z,75.00
2018-06-25T23:18:54.142Z,75.00
2018-06-25T23:21:22.661Z,75.00
2018-06-25T23:23:51.116Z,75.10
2018-06-25T23:26:19.547Z,75.10
2018-06-25T23:28:48.085Z,75.00
2018-06-25T23:31:16.757Z,75.30
2018-06-25T23:33:45.267Z,75.10
2018-06-25T23:36:13.770Z,75.10
2018-06-25T23:38:42.452Z,75.10
2018-06-25T23:41:10.997Z,75.10
2018-06-25T23:46:07.658Z,75.10
2018-06-25T23:51:04.499Z,75.10
2018-06-25T23:53:32.915Z,75.10
2018-06-25T23:58:29.666Z,75.00
